sensor_id;sensor_type;location;lat;lon;timestamp;temperature;humidity
1800;DHT22;919;48.274;12.292;2023-07-08T00:00:09;15.40;99.90
1800;DHT22;919;48.274;12.292;2023-07-08T00:02:36;15.40;99.90
1800;DHT22;919;48.274;12.292;2023-07-08T00:05:04;15.30;99.90
1800;DHT22;919;48.274;12.292;2023-07-08T00:07:32;15.30;99.90
1800;DHT22;919;48.274;12.292;2023-07-08T00:09:58;15.20;99.90
1800;DHT22;919;48.274;12.292;2023-07-08T00:12:25;15.20;99.90
1800;DHT22;919;48.274;12.292;2023-07-08T00:14:52;15.00;99.90
1800;DHT22;919;48.274;12.292;2023-07-08T00:17:18;15.00;99.90
1800;DHT22;919;48.274;12.292;2023-07-08T00:19:45;15.00;99.90
1800;DHT22;919;48.274;12.292;2023-07-08T00:22:13;15.10;99.90
1800;DHT22;919;48.274;12.292;2023-07-08T00:24:42;15.20;99.90
1800;DHT22;919;48.274;12.292;2023-07-08T00:27:11;15.20;99.90
1800;DHT22;919;48.274;12.292;2023-07-08T00:29:39;15.20;99.90
1800;DHT22;919;48.274;12.292;2023-07-08T00:32:11;15.10;99.90
1800;DHT22;919;48.274;12.292;2023-07-08T00:34:39;15.10;99.90
1800;DHT22;919;48.274;12.292;2023-07-08T00:37:07;15.00;99.90
1800;DHT22;919;48.274;12.292;2023-07-08T00:39:35;15.00;99.90
1800;DHT22;919;48.274;12.292;2023-07-08T00:42:10;15.00;99.90
1800;DHT22;919;48.274;12.292;2023-07-08T00:44:37;14.90;99.90
1800;DHT22;919;48.274;12.292;2023-07-08T00:47:09;15.00;99.90
1800;DHT22;919;48.274;12.292;2023-07-08T00:49:39;15.10;99.90
1800;DHT22;919;48.274;12.292;2023-07-08T00:52:21;15.20;99.90
1800;DHT22;919;48.274;12.292;2023-07-08T00:54:50;15.20;99.90
1800;DHT22;919;48.274;12.292;2023-07-08T00:57:18;15.10;99.90
1800;DHT22;919;48.274;12.292;2023-07-08T00:59:48;15.00;99.90
1800;DHT22;919;48.274;12.292;2023-07-08T01:02:19;15.00;99.90
1800;DHT22;919;48.274;12.292;2023-07-08T01:04:51;15.00;99.90
1800;DHT22;919;48.274;12.292;2023-07-08T01:07:20;15.10;99.90
1800;DHT22;919;48.274;12.292;2023-07-08T01:09:55;15.10;99.90
1800;DHT22;919;48.274;12.292;2023-07-08T01:12:29;15.00;99.90
1800;DHT22;919;48.274;12.292;2023-07-08T01:14:57;15.00;99.90
1800;DHT22;919;48.274;12.292;2023-07-08T01:17:26;14.90;99.90
1800;DHT22;919;48.274;12.292;2023-07-08T01:19:58;14.80;99.90
1800;DHT22;919;48.274;12.292;2023-07-08T01:22:26;14.80;99.90
1800;DHT22;919;48.274;12.292;2023-07-08T01:24:57;14.80;99.90
1800;DHT22;919;48.274;12.292;2023-07-08T01:27:29;14.80;99.90
1800;DHT22;919;48.274;12.292;2023-07-08T01:29:58;14.80;99.90
1800;DHT22;919;48.274;12.292;2023-07-08T01:32:25;14.80;99.90
1800;DHT22;919;48.274;12.292;2023-07-08T01:34:56;14.70;99.90
1800;DHT22;919;48.274;12.292;2023-07-08T01:37:34;14.60;99.90
1800;DHT22;919;48.274;12.292;2023-07-08T01:40:16;14.40;99.90
1800;DHT22;919;48.274;12.292;2023-07-08T01:42:43;14.50;99.90
1800;DHT22;919;48.274;12.292;2023-07-08T01:45:11;14.50;99.90
1800;DHT22;919;48.274;12.292;2023-07-08T01:47:40;14.50;99.90
1800;DHT22;919;48.274;12.292;2023-07-08T01:50:08;14.50;99.90
1800;DHT22;919;48.274;12.292;2023-07-08T01:52:37;14.60;99.90
1800;DHT22;919;48.274;12.292;2023-07-08T01:55:04;14.50;99.90
1800;DHT22;919;48.274;12.292;2023-07-08T01:57:31;14.50;99.90
1800;DHT22;919;48.274;12.292;2023-07-08T01:59:58;14.50;99.90
1800;DHT22;919;48.274;12.292;2023-07-08T02:02:25;14.40;99.90
1800;DHT22;919;48.274;12.292;2023-07-08T02:04:52;14.50;99.90
1800;DHT22;919;48.274;12.292;2023-07-08T02:07:18;14.50;99.90
1800;DHT22;919;48.274;12.292;2023-07-08T02:09:47;14.50;99.90
1800;DHT22;919;48.274;12.292;2023-07-08T02:12:13;14.50;99.90
1800;DHT22;919;48.274;12.292;2023-07-08T02:14:40;14.50;99.90
1800;DHT22;919;48.274;12.292;2023-07-08T02:17:07;14.60;99.90
1800;DHT22;919;48.274;12.292;2023-07-08T02:19:33;14.50;99.90
1800;DHT22;919;48.274;12.292;2023-07-08T02:22:00;14.50;99.90
1800;DHT22;919;48.274;12.292;2023-07-08T02:24:27;14.50;99.90
1800;DHT22;919;48.274;12.292;2023-07-08T02:26:55;14.50;99.90
1800;DHT22;919;48.274;12.292;2023-07-08T02:29:22;14.50;99.90
1800;DHT22;919;48.274;12.292;2023-07-08T02:31:49;14.40;99.90
1800;DHT22;919;48.274;12.292;2023-07-08T02:34:16;14.40;99.90
1800;DHT22;919;48.274;12.292;2023-07-08T02:36:42;14.40;99.90
1800;DHT22;919;48.274;12.292;2023-07-08T02:39:09;14.40;99.90
1800;DHT22;919;48.274;12.292;2023-07-08T02:41:36;14.40;99.90
1800;DHT22;919;48.274;12.292;2023-07-08T02:44:04;14.40;99.90
1800;DHT22;919;48.274;12.292;2023-07-08T02:46:31;14.30;99.90
1800;DHT22;919;48.274;12.292;2023-07-08T02:48:58;14.40;99.90
1800;DHT22;919;48.274;12.292;2023-07-08T02:51:24;14.40;99.90
1800;DHT22;919;48.274;12.292;2023-07-08T02:53:51;14.40;99.90
1800;DHT22;919;48.274;12.292;2023-07-08T02:56:18;14.40;99.90
1800;DHT22;919;48.274;12.292;2023-07-08T02:58:44;14.40;99.90
1800;DHT22;919;48.274;12.292;2023-07-08T03:01:12;14.30;99.90
1800;DHT22;919;48.274;12.292;2023-07-08T03:03:43;14.30;99.90
1800;DHT22;919;48.274;12.292;2023-07-08T03:06:10;14.30;99.90
1800;DHT22;919;48.274;12.292;2023-07-08T03:08:37;14.30;99.90
1800;DHT22;919;48.274;12.292;2023-07-08T03:11:06;14.30;99.90
1800;DHT22;919;48.274;12.292;2023-07-08T03:13:34;14.20;99.90
1800;DHT22;919;48.274;12.292;2023-07-08T03:16:02;14.30;99.90
1800;DHT22;919;48.274;12.292;2023-07-08T03:18:35;14.40;99.90
1800;DHT22;919;48.274;12.292;2023-07-08T03:21:04;14.40;99.90
1800;DHT22;919;48.274;12.292;2023-07-08T03:23:31;14.40;99.90
1800;DHT22;919;48.274;12.292;2023-07-08T03:25:58;14.40;99.90
1800;DHT22;919;48.274;12.292;2023-07-08T03:28:24;14.30;99.90
1800;DHT22;919;48.274;12.292;2023-07-08T03:30:52;14.20;99.90
1800;DHT22;919;48.274;12.292;2023-07-08T03:33:19;14.30;99.90
1800;DHT22;919;48.274;12.292;2023-07-08T03:35:47;14.30;99.90
1800;DHT22;919;48.274;12.292;2023-07-08T03:38:15;14.40;99.90
1800;DHT22;919;48.274;12.292;2023-07-08T03:40:41;14.50;99.90
1800;DHT22;919;48.274;12.292;2023-07-08T03:43:09;14.60;99.90
1800;DHT22;919;48.274;12.292;2023-07-08T03:45:36;14.70;99.90
1800;DHT22;919;48.274;12.292;2023-07-08T03:48:03;14.80;99.90
1800;DHT22;919;48.274;12.292;2023-07-08T03:50:30;14.90;99.90
1800;DHT22;919;48.274;12.292;2023-07-08T03:52:58;14.90;99.90
1800;DHT22;919;48.274;12.292;2023-07-08T03:55:26;15.00;99.90
1800;DHT22;919;48.274;12.292;2023-07-08T03:57:53;15.00;99.90
1800;DHT22;919;48.274;12.292;2023-07-08T04:00:20;15.10;99.90
1800;DHT22;919;48.274;12.292;2023-07-08T04:02:47;15.10;99.90
1800;DHT22;919;48.274;12.292;2023-07-08T04:05:15;15.00;99.90
1800;DHT22;919;48.274;12.292;2023-07-08T04:07:42;14.90;99.90
1800;DHT22;919;48.274;12.292;2023-07-08T04:10:11;15.00;99.90
1800;DHT22;919;48.274;12.292;2023-07-08T04:12:39;15.20;99.90
1800;DHT22;919;48.274;12.292;2023-07-08T04:15:08;15.30;99.90
1800;DHT22;919;48.274;12.292;2023-07-08T04:17:36;15.40;99.90
1800;DHT22;919;48.274;12.292;2023-07-08T04:20:05;15.60;99.90
1800;DHT22;919;48.274;12.292;2023-07-08T04:22:32;15.60;99.90
1800;DHT22;919;48.274;12.292;2023-07-08T04:24:58;15.70;99.90
1800;DHT22;919;48.274;12.292;2023-07-08T04:27:26;15.70;99.90
1800;DHT22;919;48.274;12.292;2023-07-08T04:29:53;15.60;99.90
1800;DHT22;919;48.274;12.292;2023-07-08T04:32:20;15.60;99.90
1800;DHT22;919;48.274;12.292;2023-07-08T04:34:50;15.50;99.90
1800;DHT22;919;48.274;12.292;2023-07-08T04:37:17;15.40;99.90
1800;DHT22;919;48.274;12.292;2023-07-08T04:39:44;15.50;99.90
1800;DHT22;919;48.274;12.292;2023-07-08T04:42:11;15.70;99.90
1800;DHT22;919;48.274;12.292;2023-07-08T04:44:44;15.90;99.90
1800;DHT22;919;48.274;12.292;2023-07-08T04:47:11;16.00;99.90
1800;DHT22;919;48.274;12.292;2023-07-08T04:49:39;16.00;99.90
1800;DHT22;919;48.274;12.292;2023-07-08T04:52:09;16.20;99.90
1800;DHT22;919;48.274;12.292;2023-07-08T04:54:36;16.40;99.90
1800;DHT22;919;48.274;12.292;2023-07-08T04:57:03;16.50;99.90
1800;DHT22;919;48.274;12.292;2023-07-08T04:59:30;16.80;99.90
1800;DHT22;919;48.274;12.292;2023-07-08T05:02:01;17.00;99.90
1800;DHT22;919;48.274;12.292;2023-07-08T05:04:28;17.20;99.90
1800;DHT22;919;48.274;12.292;2023-07-08T05:06:55;17.50;99.90
1800;DHT22;919;48.274;12.292;2023-07-08T05:09:22;17.70;99.90
1800;DHT22;919;48.274;12.292;2023-07-08T05:11:51;17.80;99.90
1800;DHT22;919;48.274;12.292;2023-07-08T05:14:18;17.90;99.90
1800;DHT22;919;48.274;12.292;2023-07-08T05:16:45;18.00;99.90
1800;DHT22;919;48.274;12.292;2023-07-08T05:19:13;18.10;99.90
1800;DHT22;919;48.274;12.292;2023-07-08T05:21:40;18.20;99.90
1800;DHT22;919;48.274;12.292;2023-07-08T05:24:08;18.20;99.90
1800;DHT22;919;48.274;12.292;2023-07-08T05:26:35;18.10;99.90
1800;DHT22;919;48.274;12.292;2023-07-08T05:29:02;18.10;99.90
1800;DHT22;919;48.274;12.292;2023-07-08T05:31:29;18.10;99.90
1800;DHT22;919;48.274;12.292;2023-07-08T05:33:56;18.20;99.90
1800;DHT22;919;48.274;12.292;2023-07-08T05:36:24;18.30;99.90
1800;DHT22;919;48.274;12.292;2023-07-08T05:38:51;18.50;99.90
1800;DHT22;919;48.274;12.292;2023-07-08T05:41:17;18.60;99.90
1800;DHT22;919;48.274;12.292;2023-07-08T05:43:44;18.60;99.90
1800;DHT22;919;48.274;12.292;2023-07-08T05:46:11;18.70;99.90
1800;DHT22;919;48.274;12.292;2023-07-08T05:48:39;18.80;99.90
1800;DHT22;919;48.274;12.292;2023-07-08T05:51:06;18.90;99.90
1800;DHT22;919;48.274;12.292;2023-07-08T05:53:35;19.00;99.90
1800;DHT22;919;48.274;12.292;2023-07-08T05:56:02;19.10;99.90
1800;DHT22;919;48.274;12.292;2023-07-08T05:58:30;19.20;99.90
1800;DHT22;919;48.274;12.292;2023-07-08T06:00:58;19.30;99.90
1800;DHT22;919;48.274;12.292;2023-07-08T06:03:25;19.40;99.90
1800;DHT22;919;48.274;12.292;2023-07-08T06:05:52;19.50;99.90
1800;DHT22;919;48.274;12.292;2023-07-08T06:08:20;19.60;99.90
1800;DHT22;919;48.274;12.292;2023-07-08T06:10:50;19.70;99.90
1800;DHT22;919;48.274;12.292;2023-07-08T06:13:16;19.80;99.90
1800;DHT22;919;48.274;12.292;2023-07-08T06:15:43;19.90;99.90
1800;DHT22;919;48.274;12.292;2023-07-08T06:18:10;19.90;99.90
1800;DHT22;919;48.274;12.292;2023-07-08T06:20:37;20.00;99.90
1800;DHT22;919;48.274;12.292;2023-07-08T06:23:03;20.20;99.90
1800;DHT22;919;48.274;12.292;2023-07-08T06:25:31;20.20;99.90
1800;DHT22;919;48.274;12.292;2023-07-08T06:27:59;20.30;99.90
1800;DHT22;919;48.274;12.292;2023-07-08T06:30:26;20.10;99.90
1800;DHT22;919;48.274;12.292;2023-07-08T06:32:53;20.10;99.90
1800;DHT22;919;48.274;12.292;2023-07-08T06:35:20;20.10;99.90
1800;DHT22;919;48.274;12.292;2023-07-08T06:37:47;20.10;99.90
1800;DHT22;919;48.274;12.292;2023-07-08T06:40:14;20.10;99.90
1800;DHT22;919;48.274;12.292;2023-07-08T06:42:43;20.10;99.90
1800;DHT22;919;48.274;12.292;2023-07-08T06:45:12;20.20;99.90
1800;DHT22;919;48.274;12.292;2023-07-08T06:47:39;20.40;99.90
1800;DHT22;919;48.274;12.292;2023-07-08T06:50:07;20.50;99.90
1800;DHT22;919;48.274;12.292;2023-07-08T06:52:35;20.60;99.90
1800;DHT22;919;48.274;12.292;2023-07-08T06:55:06;20.70;99.90
1800;DHT22;919;48.274;12.292;2023-07-08T06:57:34;20.80;99.90
1800;DHT22;919;48.274;12.292;2023-07-08T07:00:02;20.90;99.90
1800;DHT22;919;48.274;12.292;2023-07-08T07:02:31;21.10;99.90
1800;DHT22;919;48.274;12.292;2023-07-08T07:04:58;21.20;99.90
1800;DHT22;919;48.274;12.292;2023-07-08T07:07:25;21.50;99.90
1800;DHT22;919;48.274;12.292;2023-07-08T07:09:53;21.70;99.90
1800;DHT22;919;48.274;12.292;2023-07-08T07:12:21;21.90;99.90
1800;DHT22;919;48.274;12.292;2023-07-08T07:14:49;21.90;99.90
1800;DHT22;919;48.274;12.292;2023-07-08T07:17:18;21.90;99.90
1800;DHT22;919;48.274;12.292;2023-07-08T07:19:47;21.90;99.90
1800;DHT22;919;48.274;12.292;2023-07-08T07:22:14;22.00;99.90
1800;DHT22;919;48.274;12.292;2023-07-08T07:24:41;22.20;99.90
1800;DHT22;919;48.274;12.292;2023-07-08T07:27:08;22.40;99.90
1800;DHT22;919;48.274;12.292;2023-07-08T07:29:41;22.60;99.90
1800;DHT22;919;48.274;12.292;2023-07-08T07:32:09;22.70;99.90
1800;DHT22;919;48.274;12.292;2023-07-08T07:34:36;22.70;99.90
1800;DHT22;919;48.274;12.292;2023-07-08T07:37:04;22.90;99.90
1800;DHT22;919;48.274;12.292;2023-07-08T07:39:31;22.80;99.90
1800;DHT22;919;48.274;12.292;2023-07-08T07:41:58;22.90;99.90
1800;DHT22;919;48.274;12.292;2023-07-08T07:44:24;23.00;99.90
1800;DHT22;919;48.274;12.292;2023-07-08T07:46:52;23.30;99.90
1800;DHT22;919;48.274;12.292;2023-07-08T07:49:19;23.40;99.90
1800;DHT22;919;48.274;12.292;2023-07-08T07:51:46;23.30;99.90
1800;DHT22;919;48.274;12.292;2023-07-08T07:54:15;23.40;99.90
1800;DHT22;919;48.274;12.292;2023-07-08T07:56:41;23.40;99.90
1800;DHT22;919;48.274;12.292;2023-07-08T07:59:09;23.50;99.90
1800;DHT22;919;48.274;12.292;2023-07-08T08:01:36;23.70;99.90
1800;DHT22;919;48.274;12.292;2023-07-08T08:04:04;23.60;99.90
1800;DHT22;919;48.274;12.292;2023-07-08T08:06:31;23.70;99.90
1800;DHT22;919;48.274;12.292;2023-07-08T08:08:58;23.70;99.90
1800;DHT22;919;48.274;12.292;2023-07-08T08:11:26;23.80;99.90
1800;DHT22;919;48.274;12.292;2023-07-08T08:13:53;24.00;99.90
1800;DHT22;919;48.274;12.292;2023-07-08T08:16:20;24.30;99.90
1800;DHT22;919;48.274;12.292;2023-07-08T08:18:47;24.40;99.90
1800;DHT22;919;48.274;12.292;2023-07-08T08:21:14;24.40;99.90
1800;DHT22;919;48.274;12.292;2023-07-08T08:23:41;24.60;99.90
1800;DHT22;919;48.274;12.292;2023-07-08T08:26:08;24.80;99.90
1800;DHT22;919;48.274;12.292;2023-07-08T08:28:36;24.90;99.90
1800;DHT22;919;48.274;12.292;2023-07-08T08:31:03;25.10;99.90
1800;DHT22;919;48.274;12.292;2023-07-08T08:33:30;25.30;99.90
1800;DHT22;919;48.274;12.292;2023-07-08T08:35:58;25.50;99.90
1800;DHT22;919;48.274;12.292;2023-07-08T08:38:25;25.50;99.90
1800;DHT22;919;48.274;12.292;2023-07-08T08:40:52;25.40;99.90
1800;DHT22;919;48.274;12.292;2023-07-08T08:43:22;25.10;99.90
1800;DHT22;919;48.274;12.292;2023-07-08T08:45:57;25.10;99.90
1800;DHT22;919;48.274;12.292;2023-07-08T08:48:27;25.00;99.90
1800;DHT22;919;48.274;12.292;2023-07-08T08:51:01;25.00;99.90
1800;DHT22;919;48.274;12.292;2023-07-08T08:53:30;25.10;99.90
1800;DHT22;919;48.274;12.292;2023-07-08T08:56:03;25.20;99.90
1800;DHT22;919;48.274;12.292;2023-07-08T08:58:38;25.40;99.90
1800;DHT22;919;48.274;12.292;2023-07-08T09:01:12;25.50;99.90
1800;DHT22;919;48.274;12.292;2023-07-08T09:03:46;25.50;99.90
1800;DHT22;919;48.274;12.292;2023-07-08T09:06:17;25.50;99.90
1800;DHT22;919;48.274;12.292;2023-07-08T09:08:46;25.60;99.90
1800;DHT22;919;48.274;12.292;2023-07-08T09:11:22;25.60;99.90
1800;DHT22;919;48.274;12.292;2023-07-08T09:13:51;25.50;99.90
1800;DHT22;919;48.274;12.292;2023-07-08T09:16:25;25.40;99.90
1800;DHT22;919;48.274;12.292;2023-07-08T09:18:59;25.40;99.90
1800;DHT22;919;48.274;12.292;2023-07-08T09:21:31;25.20;99.90
1800;DHT22;919;48.274;12.292;2023-07-08T09:24:12;25.20;99.90
1800;DHT22;919;48.274;12.292;2023-07-08T09:26:41;25.30;99.90
1800;DHT22;919;48.274;12.292;2023-07-08T09:29:09;25.40;99.90
1800;DHT22;919;48.274;12.292;2023-07-08T09:31:40;25.40;99.90
1800;DHT22;919;48.274;12.292;2023-07-08T09:34:11;25.60;99.90
1800;DHT22;919;48.274;12.292;2023-07-08T09:36:43;25.60;99.90
1800;DHT22;919;48.274;12.292;2023-07-08T09:39:13;25.80;99.90
1800;DHT22;919;48.274;12.292;2023-07-08T09:41:42;25.80;99.90
1800;DHT22;919;48.274;12.292;2023-07-08T09:44:25;25.90;99.90
1800;DHT22;919;48.274;12.292;2023-07-08T09:46:58;25.80;99.90
1800;DHT22;919;48.274;12.292;2023-07-08T09:49:28;25.90;99.90
1800;DHT22;919;48.274;12.292;2023-07-08T09:51:55;26.00;99.90
1800;DHT22;919;48.274;12.292;2023-07-08T09:54:25;26.10;99.90
1800;DHT22;919;48.274;12.292;2023-07-08T09:56:58;26.10;99.90
1800;DHT22;919;48.274;12.292;2023-07-08T09:59:30;26.10;99.90
1800;DHT22;919;48.274;12.292;2023-07-08T10:02:23;26.20;99.90
1800;DHT22;919;48.274;12.292;2023-07-08T10:04:53;26.40;99.90
1800;DHT22;919;48.274;12.292;2023-07-08T10:07:20;26.60;99.90
1800;DHT22;919;48.274;12.292;2023-07-08T10:09:48;26.80;99.90
1800;DHT22;919;48.274;12.292;2023-07-08T10:12:17;26.70;99.90
1800;DHT22;919;48.274;12.292;2023-07-08T10:14:47;26.80;99.90
1800;DHT22;919;48.274;12.292;2023-07-08T10:17:20;27.00;99.90
1800;DHT22;919;48.274;12.292;2023-07-08T10:19:48;27.10;99.90
1800;DHT22;919;48.274;12.292;2023-07-08T10:22:31;27.30;99.90
1800;DHT22;919;48.274;12.292;2023-07-08T10:25:09;27.60;99.90
1800;DHT22;919;48.274;12.292;2023-07-08T10:27:42;27.70;99.90
1800;DHT22;919;48.274;12.292;2023-07-08T10:30:22;27.60;99.90
1800;DHT22;919;48.274;12.292;2023-07-08T10:33:20;27.70;99.90
1800;DHT22;919;48.274;12.292;2023-07-08T10:36:05;27.60;99.90
1800;DHT22;919;48.274;12.292;2023-07-08T10:38:43;27.70;99.90
1800;DHT22;919;48.274;12.292;2023-07-08T10:41:21;27.80;99.90
1800;DHT22;919;48.274;12.292;2023-07-08T10:44:02;28.00;99.90
1800;DHT22;919;48.274;12.292;2023-07-08T10:46:41;28.10;99.90
1800;DHT22;919;48.274;12.292;2023-07-08T10:49:42;28.10;99.90
1800;DHT22;919;48.274;12.292;2023-07-08T10:52:31;28.20;99.90
1800;DHT22;919;48.274;12.292;2023-07-08T10:55:14;28.00;99.90
1800;DHT22;919;48.274;12.292;2023-07-08T10:58:11;28.10;99.90
1800;DHT22;919;48.274;12.292;2023-07-08T11:00:45;28.10;99.90
1800;DHT22;919;48.274;12.292;2023-07-08T11:03:30;28.20;99.90
1800;DHT22;919;48.274;12.292;2023-07-08T11:06:07;28.30;99.90
1800;DHT22;919;48.274;12.292;2023-07-08T11:08:39;28.30;99.90
1800;DHT22;919;48.274;12.292;2023-07-08T11:11:12;28.30;99.90
1800;DHT22;919;48.274;12.292;2023-07-08T11:13:47;28.50;99.90
1800;DHT22;919;48.274;12.292;2023-07-08T11:16:19;28.70;99.90
1800;DHT22;919;48.274;12.292;2023-07-08T11:18:52;28.90;99.90
1800;DHT22;919;48.274;12.292;2023-07-08T11:21:25;28.90;99.90
1800;DHT22;919;48.274;12.292;2023-07-08T11:23:58;29.00;99.90
1800;DHT22;919;48.274;12.292;2023-07-08T11:26:29;28.90;99.90
1800;DHT22;919;48.274;12.292;2023-07-08T11:28:58;29.00;99.90
1800;DHT22;919;48.274;12.292;2023-07-08T11:31:29;29.00;99.90
1800;DHT22;919;48.274;12.292;2023-07-08T11:33:58;29.30;99.90
1800;DHT22;919;48.274;12.292;2023-07-08T11:36:28;29.50;99.90
1800;DHT22;919;48.274;12.292;2023-07-08T11:38:57;29.60;99.90
1800;DHT22;919;48.274;12.292;2023-07-08T11:41:26;29.80;99.90
1800;DHT22;919;48.274;12.292;2023-07-08T11:43:57;29.90;99.90
1800;DHT22;919;48.274;12.292;2023-07-08T11:46:26;29.80;99.90
1800;DHT22;919;48.274;12.292;2023-07-08T11:48:56;29.80;99.90
1800;DHT22;919;48.274;12.292;2023-07-08T11:51:28;29.80;99.90
1800;DHT22;919;48.274;12.292;2023-07-08T11:54:01;29.80;99.90
1800;DHT22;919;48.274;12.292;2023-07-08T11:56:49;29.60;99.90
1800;DHT22;919;48.274;12.292;2023-07-08T11:59:18;29.80;99.90
1800;DHT22;919;48.274;12.292;2023-07-08T12:01:52;30.00;99.90
1800;DHT22;919;48.274;12.292;2023-07-08T12:04:29;29.90;99.90
1800;DHT22;919;48.274;12.292;2023-07-08T12:07:12;29.90;99.90
1800;DHT22;919;48.274;12.292;2023-07-08T12:09:47;30.10;99.90
1800;DHT22;919;48.274;12.292;2023-07-08T12:12:20;30.20;99.90
1800;DHT22;919;48.274;12.292;2023-07-08T12:14:48;30.40;99.90
1800;DHT22;919;48.274;12.292;2023-07-08T12:17:18;30.70;99.90
1800;DHT22;919;48.274;12.292;2023-07-08T12:19:48;31.10;99.90
1800;DHT22;919;48.274;12.292;2023-07-08T12:22:17;31.30;99.90
1800;DHT22;919;48.274;12.292;2023-07-08T12:24:45;31.20;99.90
1800;DHT22;919;48.274;12.292;2023-07-08T12:27:12;31.00;99.90
1800;DHT22;919;48.274;12.292;2023-07-08T12:29:39;30.80;99.90
1800;DHT22;919;48.274;12.292;2023-07-08T12:32:11;30.70;99.90
1800;DHT22;919;48.274;12.292;2023-07-08T12:34:39;30.80;99.90
1800;DHT22;919;48.274;12.292;2023-07-08T12:37:12;30.90;99.90
1800;DHT22;919;48.274;12.292;2023-07-08T12:39:41;31.10;99.90
1800;DHT22;919;48.274;12.292;2023-07-08T12:42:12;31.00;99.90
1800;DHT22;919;48.274;12.292;2023-07-08T12:44:40;30.90;99.90
1800;DHT22;919;48.274;12.292;2023-07-08T12:47:09;31.10;99.90
1800;DHT22;919;48.274;12.292;2023-07-08T12:49:36;31.20;99.90
1800;DHT22;919;48.274;12.292;2023-07-08T12:52:05;31.40;99.90
1800;DHT22;919;48.274;12.292;2023-07-08T12:54:32;31.40;99.90
1800;DHT22;919;48.274;12.292;2023-07-08T12:57:02;31.30;99.90
1800;DHT22;919;48.274;12.292;2023-07-08T12:59:31;31.50;99.90
1800;DHT22;919;48.274;12.292;2023-07-08T13:01:58;31.50;99.90
1800;DHT22;919;48.274;12.292;2023-07-08T13:04:26;31.60;99.90
1800;DHT22;919;48.274;12.292;2023-07-08T13:06:56;31.50;99.90
1800;DHT22;919;48.274;12.292;2023-07-08T13:09:36;31.40;99.90
1800;DHT22;919;48.274;12.292;2023-07-08T13:12:13;31.60;99.90
1800;DHT22;919;48.274;12.292;2023-07-08T13:14:42;31.70;99.90
1800;DHT22;919;48.274;12.292;2023-07-08T13:17:13;31.80;99.90
1800;DHT22;919;48.274;12.292;2023-07-08T13:19:42;31.70;99.90
1800;DHT22;919;48.274;12.292;2023-07-08T13:22:15;31.80;99.90
1800;DHT22;919;48.274;12.292;2023-07-08T13:24:43;31.90;99.90
1800;DHT22;919;48.274;12.292;2023-07-08T13:27:20;32.00;99.90
1800;DHT22;919;48.274;12.292;2023-07-08T13:29:51;32.10;99.90
1800;DHT22;919;48.274;12.292;2023-07-08T13:32:19;32.20;99.90
1800;DHT22;919;48.274;12.292;2023-07-08T13:34:49;32.20;99.90
1800;DHT22;919;48.274;12.292;2023-07-08T13:37:18;32.20;99.80
1800;DHT22;919;48.274;12.292;2023-07-08T13:39:48;32.20;98.60
1800;DHT22;919;48.274;12.292;2023-07-08T13:42:17;32.30;98.50
1800;DHT22;919;48.274;12.292;2023-07-08T13:44:44;32.30;96.60
1800;DHT22;919;48.274;12.292;2023-07-08T13:47:21;32.30;96.40
1800;DHT22;919;48.274;12.292;2023-07-08T13:49:49;32.30;95.70
1800;DHT22;919;48.274;12.292;2023-07-08T13:52:21;32.30;96.10
1800;DHT22;919;48.274;12.292;2023-07-08T13:54:50;32.30;94.80
1800;DHT22;919;48.274;12.292;2023-07-08T13:57:22;32.50;95.80
1800;DHT22;919;48.274;12.292;2023-07-08T13:59:51;32.60;95.20
1800;DHT22;919;48.274;12.292;2023-07-08T14:02:22;32.80;96.20
1800;DHT22;919;48.274;12.292;2023-07-08T14:04:51;32.90;94.80
1800;DHT22;919;48.274;12.292;2023-07-08T14:07:21;32.70;94.70
1800;DHT22;919;48.274;12.292;2023-07-08T14:09:48;32.70;94.70
1800;DHT22;919;48.274;12.292;2023-07-08T14:12:16;32.70;93.70
1800;DHT22;919;48.274;12.292;2023-07-08T14:14:46;32.80;95.30
1800;DHT22;919;48.274;12.292;2023-07-08T14:17:19;32.50;93.50
1800;DHT22;919;48.274;12.292;2023-07-08T14:19:48;32.20;93.80
1800;DHT22;919;48.274;12.292;2023-07-08T14:22:23;32.10;94.60
1800;DHT22;919;48.274;12.292;2023-07-08T14:24:53;31.90;95.00
1800;DHT22;919;48.274;12.292;2023-07-08T14:27:22;31.80;94.30
1800;DHT22;919;48.274;12.292;2023-07-08T14:29:51;31.70;94.30
1800;DHT22;919;48.274;12.292;2023-07-08T14:32:22;31.80;95.40
1800;DHT22;919;48.274;12.292;2023-07-08T14:34:54;31.70;95.00
1800;DHT22;919;48.274;12.292;2023-07-08T14:37:22;31.70;95.40
1800;DHT22;919;48.274;12.292;2023-07-08T14:39:50;31.70;95.50
1800;DHT22;919;48.274;12.292;2023-07-08T14:42:19;31.80;96.30
1800;DHT22;919;48.274;12.292;2023-07-08T14:44:48;31.70;95.50
1800;DHT22;919;48.274;12.292;2023-07-08T14:47:20;31.70;94.30
1800;DHT22;919;48.274;12.292;2023-07-08T14:49:48;32.00;92.90
1800;DHT22;919;48.274;12.292;2023-07-08T14:52:17;32.30;93.70
1800;DHT22;919;48.274;12.292;2023-07-08T14:54:45;32.80;94.30
1800;DHT22;919;48.274;12.292;2023-07-08T14:57:15;33.10;93.90
1800;DHT22;919;48.274;12.292;2023-07-08T14:59:43;33.10;94.20
1800;DHT22;919;48.274;12.292;2023-07-08T15:02:21;33.20;92.00
1800;DHT22;919;48.274;12.292;2023-07-08T15:04:51;33.20;93.40
1800;DHT22;919;48.274;12.292;2023-07-08T15:07:19;32.80;92.20
1800;DHT22;919;48.274;12.292;2023-07-08T15:09:47;32.90;91.90
1800;DHT22;919;48.274;12.292;2023-07-08T15:12:14;32.80;92.90
1800;DHT22;919;48.274;12.292;2023-07-08T15:14:41;33.00;94.10
1800;DHT22;919;48.274;12.292;2023-07-08T15:17:12;32.80;91.90
1800;DHT22;919;48.274;12.292;2023-07-08T15:19:43;32.90;93.00
1800;DHT22;919;48.274;12.292;2023-07-08T15:22:11;33.00;92.50
1800;DHT22;919;48.274;12.292;2023-07-08T15:24:39;33.10;92.10
1800;DHT22;919;48.274;12.292;2023-07-08T15:27:10;33.10;91.30
1800;DHT22;919;48.274;12.292;2023-07-08T15:29:38;33.10;91.70
1800;DHT22;919;48.274;12.292;2023-07-08T15:32:11;33.10;90.40
1800;DHT22;919;48.274;12.292;2023-07-08T15:34:39;33.20;90.30
1800;DHT22;919;48.274;12.292;2023-07-08T15:37:08;33.20;90.90
1800;DHT22;919;48.274;12.292;2023-07-08T15:39:37;33.20;90.60
1800;DHT22;919;48.274;12.292;2023-07-08T15:42:11;33.20;90.80
1800;DHT22;919;48.274;12.292;2023-07-08T15:44:40;33.20;91.20
1800;DHT22;919;48.274;12.292;2023-07-08T15:47:11;33.10;91.00
1800;DHT22;919;48.274;12.292;2023-07-08T15:49:40;33.20;91.40
1800;DHT22;919;48.274;12.292;2023-07-08T15:52:12;33.20;91.50
1800;DHT22;919;48.274;12.292;2023-07-08T15:54:47;32.70;91.00
1800;DHT22;919;48.274;12.292;2023-07-08T15:57:14;32.20;90.40
1800;DHT22;919;48.274;12.292;2023-07-08T15:59:42;31.90;90.30
1800;DHT22;919;48.274;12.292;2023-07-08T16:02:24;31.70;91.70
1800;DHT22;919;48.274;12.292;2023-07-08T16:04:53;31.50;93.50
1800;DHT22;919;48.274;12.292;2023-07-08T16:07:23;31.40;93.80
1800;DHT22;919;48.274;12.292;2023-07-08T16:09:52;31.30;94.10
1800;DHT22;919;48.274;12.292;2023-07-08T16:12:20;31.20;94.40
1800;DHT22;919;48.274;12.292;2023-07-08T16:14:48;31.10;95.70
1800;DHT22;919;48.274;12.292;2023-07-08T16:17:17;31.10;99.20